createdAt,value
2019-02-28T00:00:17.319Z,56.60
2019-02-28T00:02:46.068Z,56.80
2019-02-28T00:05:14.790Z,56.90
2019-02-28T00:07:43.571Z,56.40
2019-02-28T00:10:12.123Z,55.90
2019-02-28T00:12:40.804Z,55.50
2019-02-28T00:15:10.118Z,55.20
2019-02-28T00:17:42.757Z,55.40
2019-02-28T00:20:09.725Z,55.50
2019-02-28T00:22:38.398Z,55.50
2019-02-28T00:25:10.891Z,55.20
2019-02-28T00:27:39.574Z,55.10
2019-02-28T00:30:13.784Z,55.30
2019-02-28T00:32:42.456Z,55.50
2019-02-28T00:35:13.386Z,56.30
2019-02-28T00:37:41.377Z,55.70
2019-02-28T00:40:10.840Z,56.50
2019-02-28T00:42:39.559Z,56.40
2019-02-28T00:45:14.285Z,56.90
2019-02-28T00:47:42.969Z,56.60
2019-02-28T00:50:11.656Z,57.10
2019-02-28T00:52:40.339Z,56.70
2019-02-28T00:55:14.474Z,56.50
2019-02-28T00:57:42.526Z,57.10
2019-02-28T01:00:15.059Z,57.00
2019-02-28T01:02:43.927Z,57.00
2019-02-28T01:05:12.585Z,56.90
2019-02-28T01:07:41.165Z,56.80
2019-02-28T01:10:11.461Z,56.40
2019-02-28T01:12:40.058Z,56.20
2019-02-28T01:15:18.673Z,56.60
2019-02-28T01:17:47.257Z,56.60
2019-02-28T01:20:16.676Z,57.00
2019-02-28T01:22:45.654Z,57.10
2019-02-28T01:25:15.798Z,57.20
2019-02-28T01:27:44.467Z,57.40
2019-02-28T01:30:14.345Z,57.20
2019-02-28T01:32:43.035Z,56.70
2019-02-28T01:35:11.667Z,56.70
2019-02-28T01:37:40.213Z,56.50
2019-02-28T01:40:14.018Z,56.30
2019-02-28T01:42:42.701Z,56.20
2019-02-28T01:45:14.656Z,56.30
2019-02-28T01:47:43.348Z,57.00
2019-02-28T01:50:13.156Z,56.50
2019-02-28T01:52:45.836Z,56.40
2019-02-28T01:55:12.278Z,56.20
2019-02-28T01:57:43.793Z,56.40
2019-02-28T02:00:16.807Z,56.40
2019-02-28T02:02:45.491Z,56.40
2019-02-28T02:05:16.982Z,56.20
2019-02-28T02:07:44.600Z,56.20
2019-02-28T02:10:22.747Z,56.10
2019-02-28T02:12:52.221Z,56.70
2019-02-28T02:15:21.313Z,56.40
2019-02-28T02:17:50.093Z,56.90
2019-02-28T02:20:18.678Z,56.80
2019-02-28T02:22:47.366Z,57.00
2019-02-28T02:25:16.263Z,57.50
2019-02-28T02:27:45.046Z,57.40
2019-02-28T02:30:16.813Z,57.20
2019-02-28T02:32:45.696Z,57.30
2019-02-28T02:35:14.481Z,57.50
2019-02-28T02:37:45.721Z,57.80
2019-02-28T02:40:15.815Z,57.80
2019-02-28T02:42:48.543Z,57.90
2019-02-28T02:45:15.268Z,58.20
2019-02-28T02:47:43.944Z,58.30
2019-02-28T02:50:13.868Z,58.10
2019-02-28T02:52:42.733Z,57.90
2019-02-28T02:55:11.317Z,57.80
2019-02-28T02:57:39.899Z,58.20
2019-02-28T03:00:18.883Z,58.30
2019-02-28T03:02:47.496Z,58.30
2019-02-28T03:05:16.217Z,58.50
2019-02-28T03:07:44.812Z,58.30
2019-02-28T03:10:17.334Z,58.40
2019-02-28T03:12:45.427Z,58.80
2019-02-28T03:15:15.477Z,58.60
2019-02-28T03:17:47.062Z,58.80
2019-02-28T03:20:15.057Z,58.50
2019-02-28T03:22:43.857Z,58.70
2019-02-28T03:25:16.607Z,59.40
2019-02-28T03:27:47.051Z,59.50
2019-02-28T03:30:27.957Z,59.50
2019-02-28T03:32:50.871Z,59.40
2019-02-28T03:35:19.556Z,59.50
2019-02-28T03:37:48.145Z,58.90
2019-02-28T03:40:16.933Z,58.80
2019-02-28T03:42:45.716Z,58.80
2019-02-28T03:45:15.526Z,59.00
2019-02-28T03:47:45.741Z,59.00
2019-02-28T03:50:14.425Z,58.80
2019-02-28T03:52:44.707Z,58.90
2019-02-28T03:55:14.545Z,58.60
2019-02-28T03:57:45.806Z,59.20
2019-02-28T04:00:21.875Z,59.50
2019-02-28T04:02:56.968Z,60.30
2019-02-28T04:05:26.443Z,60.90
2019-02-28T04:07:53.566Z,61.90
2019-02-28T04:10:22.577Z,61.90
2019-02-28T04:12:51.656Z,61.90
2019-02-28T04:15:20.942Z,61.80
2019-02-28T04:17:49.464Z,61.70
2019-02-28T04:20:18.103Z,61.60
2019-02-28T04:22:46.641Z,62.20
2019-02-28T04:25:19.208Z,61.90
2019-02-28T04:27:45.965Z,61.40
2019-02-28T04:30:15.397Z,61.40
2019-02-28T04:32:44.189Z,61.30
2019-02-28T04:35:13.281Z,61.20
2019-02-28T04:37:46.907Z,60.70
2019-02-28T04:40:12.919Z,60.60
2019-02-28T04:42:41.695Z,60.70
2019-02-28T04:45:14.875Z,60.70
2019-02-28T04:47:43.660Z,60.50
2019-02-28T04:50:12.861Z,60.20
2019-02-28T04:52:46.660Z,60.00
2019-02-28T04:55:11.971Z,59.90
2019-02-28T04:57:40.658Z,59.60
2019-02-28T05:00:13.746Z,59.20
2019-02-28T05:02:42.427Z,59.10
2019-02-28T05:05:12.776Z,59.50
2019-02-28T05:07:41.630Z,59.40
2019-02-28T05:10:11.148Z,59.10
2019-02-28T05:12:40.975Z,58.60
2019-02-28T05:15:12.041Z,58.50
2019-02-28T05:17:40.892Z,58.50
2019-02-28T05:20:11.921Z,58.00
2019-02-28T05:22:41.147Z,57.90
2019-02-28T05:25:11.036Z,57.60
2019-02-28T05:27:39.808Z,57.60
2019-02-28T05:30:19.674Z,57.40
2019-02-28T05:32:48.564Z,57.20
2019-02-28T05:35:17.347Z,57.10
2019-02-28T05:37:48.310Z,57.10
2019-02-28T05:40:16.771Z,56.90
2019-02-28T05:42:45.549Z,57.10
2019-02-28T05:45:17.001Z,56.90
2019-02-28T05:47:47.181Z,57.00
2019-02-28T05:50:17.179Z,57.10
2019-02-28T05:52:46.124Z,57.10
2019-02-28T05:55:14.809Z,57.20
2019-02-28T05:57:44.761Z,57.50
2019-02-28T06:00:18.332Z,57.60
2019-02-28T06:02:47.038Z,57.40
2019-02-28T06:05:15.587Z,57.60
2019-02-28T06:07:44.259Z,57.90
2019-02-28T06:10:16.020Z,57.70
2019-02-28T06:12:45.022Z,57.80
2019-02-28T06:15:16.366Z,57.80
2019-02-28T06:17:44.950Z,58.00
2019-02-28T06:20:16.519Z,57.90
2019-02-28T06:22:44.469Z,57.90
2019-02-28T06:25:22.839Z,58.20
2019-02-28T06:27:48.948Z,58.20
2019-02-28T06:30:16.037Z,58.30
2019-02-28T06:32:44.734Z,58.20
2019-02-28T06:35:16.583Z,58.10
2019-02-28T06:37:43.945Z,58.10
2019-02-28T06:40:17.037Z,57.70
2019-02-28T06:42:46.777Z,57.60
2019-02-28T06:45:19.781Z,58.00
2019-02-28T06:47:49.873Z,57.90
2019-02-28T06:50:18.630Z,57.90
2019-02-28T06:52:47.315Z,58.10
2019-02-28T06:55:23.273Z,58.40
2019-02-28T06:57:51.853Z,58.40
2019-02-28T07:00:20.539Z,58.60
2019-02-28T07:02:50.155Z,58.40
2019-02-28T07:05:24.366Z,58.80
2019-02-28T07:07:50.041Z,59.00
2019-02-28T07:10:19.374Z,58.80
2019-02-28T07:12:48.157Z,59.00
2019-02-28T07:15:16.740Z,59.00
2019-02-28T07:17:46.307Z,59.20
2019-02-28T07:20:19.541Z,59.10
2019-02-28T07:22:48.227Z,58.60
2019-02-28T07:25:16.909Z,58.30
2019-02-28T07:27:45.695Z,58.10
2019-02-28T07:30:22.058Z,58.30
2019-02-28T07:32:50.848Z,58.20
2019-02-28T07:35:19.640Z,58.00
2019-02-28T07:37:53.414Z,57.90
2019-02-28T07:40:19.152Z,57.70
2019-02-28T07:42:47.835Z,57.40
2019-02-28T07:45:16.622Z,57.30
2019-02-28T07:47:45.340Z,57.40
2019-02-28T07:50:15.108Z,57.30
2019-02-28T07:52:43.826Z,57.20
2019-02-28T07:55:20.277Z,67.30
2019-02-28T07:57:54.264Z,77.60
2019-02-28T08:00:23.079Z,78.20
2019-02-28T08:02:51.748Z,75.20
2019-02-28T08:05:20.445Z,71.70
2019-02-28T08:07:51.915Z,68.40
2019-02-28T08:10:26.731Z,65.50
2019-02-28T08:12:55.303Z,63.10
2019-02-28T08:15:25.120Z,60.20
2019-02-28T08:17:53.795Z,58.90
2019-02-28T08:20:22.483Z,57.30
2019-02-28T08:22:51.178Z,56.20
2019-02-28T08:25:19.961Z,55.60
2019-02-28T08:27:48.668Z,55.20
2019-02-28T08:30:28.992Z,54.70
2019-02-28T08:32:57.574Z,54.30
2019-02-28T08:35:26.262Z,54.10
2019-02-28T08:37:57.132Z,53.80
2019-02-28T08:40:27.334Z,53.60
2019-02-28T08:42:55.900Z,53.50
2019-02-28T08:45:24.511Z,53.10
2019-02-28T08:47:56.703Z,53.00
2019-02-28T08:50:24.442Z,52.80
2019-02-28T08:53:06.516Z,52.40
2019-02-28T08:55:38.502Z,52.40
2019-02-28T08:58:06.679Z,52.40
2019-02-28T09:00:37.533Z,52.20
2019-02-28T09:03:05.961Z,52.20
2019-02-28T09:05:34.852Z,52.00
2019-02-28T09:08:03.635Z,51.90
2019-02-28T09:10:32.265Z,51.60
2019-02-28T09:13:01.002Z,51.50
2019-02-28T09:15:31.131Z,51.50
2019-02-28T09:18:00.107Z,51.20
2019-02-28T09:20:28.793Z,51.20
2019-02-28T09:23:01.638Z,51.10
2019-02-28T09:25:27.698Z,51.00
2019-02-28T09:27:56.281Z,50.90
2019-02-28T09:30:39.565Z,50.90
2019-02-28T09:33:08.191Z,50.80
2019-02-28T09:35:36.772Z,50.80
2019-02-28T09:38:07.688Z,50.70
2019-02-28T09:40:35.785Z,50.60
2019-02-28T09:43:04.569Z,50.60
2019-02-28T09:45:34.222Z,50.50
2019-02-28T09:48:02.960Z,50.40
2019-02-28T09:50:33.019Z,51.10
2019-02-28T09:53:01.972Z,50.30
2019-02-28T09:55:34.126Z,50.20
2019-02-28T09:58:01.181Z,50.10
2019-02-28T10:00:30.386Z,50.10
2019-02-28T10:02:59.164Z,50.00
2019-02-28T10:05:27.807Z,50.00
2019-02-28T10:08:01.525Z,49.90
2019-02-28T10:10:28.324Z,49.90
2019-02-28T10:12:56.963Z,49.80
2019-02-28T10:15:26.079Z,49.10
2019-02-28T10:17:54.754Z,49.70
2019-02-28T10:20:30.706Z,49.80
2019-02-28T10:22:59.393Z,49.70
2019-02-28T10:25:28.076Z,49.70
2019-02-28T10:28:01.599Z,49.70
2019-02-28T10:30:31.780Z,49.70
2019-02-28T10:32:57.920Z,49.70
2019-02-28T10:35:26.810Z,49.70
2019-02-28T10:37:58.437Z,49.60
2019-02-28T10:40:29.294Z,49.60
2019-02-28T10:42:58.090Z,49.50
2019-02-28T10:45:27.536Z,49.50
2019-02-28T10:47:56.170Z,49.40
2019-02-28T10:50:31.980Z,49.40
2019-02-28T10:53:04.029Z,49.30
2019-02-28T10:55:29.603Z,49.20
2019-02-28T10:57:58.079Z,49.20
2019-02-28T11:00:34.488Z,49.10
2019-02-28T11:03:03.231Z,49.70
2019-02-28T11:05:34.199Z,49.00
2019-02-28T11:08:03.467Z,49.00
2019-02-28T11:10:35.496Z,49.00
2019-02-28T11:13:06.263Z,48.90
2019-02-28T11:15:34.948Z,49.00
2019-02-28T11:18:08.494Z,48.90
2019-02-28T11:20:34.061Z,48.90
2019-02-28T11:23:02.846Z,48.80
2019-02-28T11:25:34.612Z,48.70
2019-02-28T11:28:01.765Z,48.80
2019-02-28T11:30:31.470Z,48.70
2019-02-28T11:33:03.218Z,48.70
2019-02-28T11:35:30.983Z,48.80
2019-02-28T11:37:59.550Z,48.80
2019-02-28T11:40:31.316Z,48.70
2019-02-28T11:43:02.773Z,48.60
2019-02-28T11:45:37.705Z,48.50
2019-02-28T11:48:08.136Z,48.50
2019-02-28T11:50:41.185Z,48.50
2019-02-28T11:53:07.624Z,48.50
2019-02-28T11:55:36.222Z,48.60
2019-02-28T11:58:04.906Z,48.40
2019-02-28T12:00:36.739Z,48.20
2019-02-28T12:03:05.935Z,48.20
2019-02-28T12:05:34.840Z,48.20
2019-02-28T12:08:09.220Z,48.20
2019-02-28T12:10:33.757Z,48.10
2019-02-28T12:13:02.444Z,48.10
2019-02-28T12:15:39.529Z,48.10
2019-02-28T12:18:08.006Z,48.10
2019-02-28T12:20:36.584Z,48.10
2019-02-28T12:23:05.269Z,48.00
2019-02-28T12:25:33.972Z,48.00
2019-02-28T12:28:06.304Z,47.90
2019-02-28T12:30:35.101Z,47.90
2019-02-28T12:33:03.901Z,47.90
2019-02-28T12:35:37.420Z,48.00
2019-02-28T12:38:03.317Z,47.90
2019-02-28T12:40:36.627Z,47.80
2019-02-28T12:43:08.611Z,47.80
2019-02-28T12:45:39.577Z,47.80
2019-02-28T12:48:08.183Z,47.90
2019-02-28T12:50:36.782Z,48.00
2019-02-28T12:53:05.799Z,48.00
2019-02-28T12:55:35.473Z,48.10
2019-02-28T12:58:05.003Z,48.10
2019-02-28T13:00:36.222Z,48.10
2019-02-28T13:03:05.028Z,48.00
2019-02-28T13:05:33.801Z,47.90
2019-02-28T13:08:05.713Z,47.80
2019-02-28T13:10:32.600Z,47.70
2019-02-28T13:13:06.194Z,47.70
2019-02-28T13:15:31.401Z,47.60
2019-02-28T13:18:00.316Z,47.60
2019-02-28T13:20:36.397Z,47.50
2019-02-28T13:23:04.811Z,47.50
2019-02-28T13:25:33.521Z,47.50
2019-02-28T13:28:02.042Z,47.50
2019-02-28T13:30:30.706Z,47.40
2019-02-28T13:32:59.364Z,47.30
2019-02-28T13:35:36.940Z,47.20
2019-02-28T13:38:05.639Z,47.30
2019-02-28T13:40:34.426Z,47.30
2019-02-28T13:43:03.110Z,47.40
2019-02-28T13:45:32.003Z,47.30
2019-02-28T13:48:00.892Z,47.30
2019-02-28T13:50:32.799Z,47.30
2019-02-28T13:53:16.897Z,47.40
2019-02-28T13:55:32.276Z,47.40
2019-02-28T13:58:00.952Z,47.40
2019-02-28T14:00:32.323Z,47.40
2019-02-28T14:03:09.175Z,47.30
2019-02-28T14:05:38.751Z,48.00
2019-02-28T14:08:09.760Z,47.30
2019-02-28T14:10:34.636Z,47.40
2019-02-28T14:13:04.230Z,47.40
2019-02-28T14:15:48.151Z,47.40
2019-02-28T14:18:16.953Z,47.40
2019-02-28T14:20:45.752Z,47.40
2019-02-28T14:23:20.211Z,47.40
2019-02-28T14:25:44.865Z,47.40
2019-02-28T14:28:13.537Z,47.40
2019-02-28T14:30:42.225Z,47.30
2019-02-28T14:33:11.011Z,47.30
2019-02-28T14:35:39.695Z,47.40
2019-02-28T14:38:08.376Z,47.40
2019-02-28T14:40:37.059Z,47.40
2019-02-28T14:43:05.744Z,47.40
2019-02-28T14:45:42.931Z,47.40
2019-02-28T14:48:10.619Z,47.40
2019-02-28T14:50:39.373Z,47.30
2019-02-28T14:53:13.071Z,47.30
2019-02-28T14:55:40.522Z,47.20
2019-02-28T14:58:09.422Z,47.20
2019-02-28T15:00:39.056Z,47.10
2019-02-28T15:03:08.742Z,47.10
2019-02-28T15:05:41.660Z,47.10
2019-02-28T15:08:11.864Z,47.00
2019-02-28T15:10:41.243Z,47.10
2019-02-28T15:13:10.137Z,47.10
2019-02-28T15:15:39.017Z,47.10
2019-02-28T15:18:10.976Z,47.00
2019-02-28T15:20:38.237Z,47.00
2019-02-28T15:23:07.126Z,47.10
2019-02-28T15:25:36.006Z,47.00
2019-02-28T15:28:06.445Z,47.00
2019-02-28T15:30:37.992Z,47.00
2019-02-28T15:33:08.118Z,47.00
2019-02-28T15:35:36.879Z,47.00
2019-02-28T15:38:08.987Z,47.00
2019-02-28T15:40:41.252Z,47.00
2019-02-28T15:43:10.716Z,47.00
2019-02-28T15:45:39.620Z,47.10
2019-02-28T15:48:08.509Z,47.70
2019-02-28T15:50:37.413Z,50.00
2019-02-28T15:53:07.724Z,51.80
2019-02-28T15:55:38.352Z,52.20
2019-02-28T15:58:07.248Z,51.90
2019-02-28T16:00:36.658Z,51.00
2019-02-28T16:03:07.277Z,49.70
2019-02-28T16:05:42.666Z,48.60
2019-02-28T16:08:10.403Z,47.60
2019-02-28T16:10:36.805Z,46.70
2019-02-28T16:13:06.833Z,45.80
2019-02-28T16:15:35.722Z,45.10
2019-02-28T16:18:04.298Z,44.70
2019-02-28T16:20:33.012Z,44.20
2019-02-28T16:23:02.002Z,43.80
2019-02-28T16:25:37.730Z,43.50
2019-02-28T16:28:08.961Z,43.30
2019-02-28T16:30:39.216Z,43.20
2019-02-28T16:33:09.358Z,43.10
2019-02-28T16:35:38.101Z,43.20
2019-02-28T16:38:09.945Z,43.70
2019-02-28T16:40:38.532Z,43.10
2019-02-28T16:43:09.057Z,43.00
2019-02-28T16:45:40.946Z,43.10
2019-02-28T16:48:12.369Z,43.20
2019-02-28T16:50:42.590Z,43.30
2019-02-28T16:53:16.512Z,43.50
2019-02-28T16:55:49.815Z,45.00
2019-02-28T16:58:21.889Z,45.80
2019-02-28T17:00:51.809Z,46.00
2019-02-28T17:03:20.669Z,46.20
2019-02-28T17:05:50.943Z,46.30
2019-02-28T17:08:19.766Z,46.80
2019-02-28T17:10:48.674Z,47.30
2019-02-28T17:13:19.189Z,47.60
2019-02-28T17:16:01.368Z,47.70
2019-02-28T17:18:32.115Z,48.30
2019-02-28T17:21:01.014Z,48.90
2019-02-28T17:23:30.395Z,49.40
2019-02-28T17:25:59.301Z,49.70
2019-02-28T17:28:46.586Z,51.10
2019-02-28T17:31:24.217Z,52.30
2019-02-28T17:33:56.435Z,53.10
2019-02-28T17:36:26.912Z,54.10
2019-02-28T17:38:56.014Z,54.70
2019-02-28T17:41:24.903Z,54.80
2019-02-28T17:44:09.046Z,55.20
2019-02-28T17:46:37.936Z,55.20
2019-02-28T17:49:26.459Z,54.90
2019-02-28T17:51:59.523Z,55.10
2019-02-28T17:54:43.711Z,55.40
2019-02-28T17:57:16.520Z,55.00
2019-02-28T18:00:16.164Z,54.80
2019-02-28T18:03:17.556Z,54.60
2019-02-28T18:06:12.829Z,54.10
2019-02-28T18:08:59.876Z,53.90
2019-02-28T18:11:52.616Z,54.00
2019-02-28T18:14:24.688Z,55.40
2019-02-28T18:17:02.590Z,56.20
2019-02-28T18:19:40.591Z,57.10
2019-02-28T18:22:30.678Z,57.50
2019-02-28T18:25:18.076Z,58.00
2019-02-28T18:28:05.428Z,58.30
2019-02-28T18:30:46.328Z,58.20
2019-02-28T18:33:16.110Z,58.30
2019-02-28T18:35:44.804Z,58.30
2019-02-28T18:38:13.473Z,58.20
2019-02-28T18:40:42.159Z,58.40
2019-02-28T18:43:10.743Z,58.70
2019-02-28T18:45:39.285Z,58.90
2019-02-28T18:48:08.007Z,59.00
2019-02-28T18:50:36.693Z,58.60
2019-02-28T18:53:05.282Z,58.20
2019-02-28T18:55:35.143Z,57.90
2019-02-28T18:58:03.979Z,57.70
2019-02-28T19:00:32.664Z,57.50
2019-02-28T19:03:01.230Z,57.00
2019-02-28T19:05:30.029Z,56.80
2019-02-28T19:07:58.714Z,56.50
2019-02-28T19:10:27.508Z,56.30
2019-02-28T19:12:56.181Z,56.10
2019-02-28T19:15:24.931Z,56.60
2019-02-28T19:17:53.864Z,55.80
2019-02-28T19:20:23.185Z,55.60
2019-02-28T19:22:52.163Z,55.50
2019-02-28T19:25:21.151Z,55.40
2019-02-28T19:27:50.378Z,55.20
2019-02-28T19:30:19.232Z,55.20
2019-02-28T19:32:47.914Z,55.00
2019-02-28T19:35:16.821Z,55.00
2019-02-28T19:37:45.593Z,54.90
2019-02-28T19:40:14.561Z,54.70
2019-02-28T19:42:43.685Z,55.30
2019-02-28T19:45:21.286Z,54.40
2019-02-28T19:47:51.080Z,54.40
2019-02-28T19:50:19.767Z,54.20
2019-02-28T19:52:48.452Z,54.10
2019-02-28T19:55:17.239Z,54.10
2019-02-28T19:57:47.669Z,54.00
2019-02-28T20:00:18.066Z,53.80
2019-02-28T20:02:46.675Z,53.80
2019-02-28T20:05:15.256Z,53.70
2019-02-28T20:07:43.939Z,53.60
2019-02-28T20:10:20.206Z,53.40
2019-02-28T20:12:48.887Z,53.20
2019-02-28T20:15:18.697Z,53.80
2019-02-28T20:17:47.584Z,53.10
2019-02-28T20:20:20.683Z,53.00
2019-02-28T20:22:49.253Z,53.00
2019-02-28T20:25:17.940Z,52.90
2019-02-28T20:27:46.711Z,52.80
2019-02-28T20:30:21.987Z,52.90
2019-02-28T20:32:50.966Z,52.90
2019-02-28T20:35:26.216Z,53.10
2019-02-28T20:37:49.992Z,53.30
2019-02-28T20:40:32.522Z,53.50
2019-02-28T20:43:01.991Z,53.50
2019-02-28T20:45:30.978Z,53.50
2019-02-28T20:47:59.652Z,53.30
2019-02-28T20:50:31.308Z,53.20
2019-02-28T20:53:00.097Z,53.10
2019-02-28T20:55:28.777Z,53.00
2019-02-28T20:57:57.452Z,53.00
2019-02-28T21:00:26.865Z,52.90
2019-02-28T21:02:55.751Z,52.90
2019-02-28T21:05:24.555Z,52.80
2019-02-28T21:07:53.225Z,52.70
2019-02-28T21:10:22.013Z,52.60
2019-02-28T21:12:50.580Z,52.40
2019-02-28T21:15:19.175Z,52.30
2019-02-28T21:17:47.765Z,52.30
2019-02-28T21:20:18.080Z,52.10
2019-02-28T21:22:46.663Z,52.10
2019-02-28T21:25:19.034Z,52.10
2019-02-28T21:27:47.615Z,52.00
2019-02-28T21:30:24.012Z,51.90
2019-02-28T21:32:52.553Z,51.90
2019-02-28T21:35:22.886Z,51.80
2019-02-28T21:37:51.473Z,51.90
2019-02-28T21:40:21.177Z,51.80
2019-02-28T21:42:50.070Z,51.80
2019-02-28T21:45:25.660Z,51.80
2019-02-28T21:47:55.762Z,51.70
2019-02-28T21:50:24.638Z,51.60
2019-02-28T21:52:53.208Z,51.60
2019-02-28T21:55:22.091Z,51.60
2019-02-28T21:57:51.864Z,51.50
2019-02-28T22:00:29.089Z,51.90
2019-02-28T22:02:57.980Z,51.40
2019-02-28T22:05:26.769Z,51.30
2019-02-28T22:07:55.452Z,51.30
2019-02-28T22:10:24.118Z,51.30
2019-02-28T22:12:52.926Z,51.30
2019-02-28T22:15:23.865Z,51.20
2019-02-28T22:17:52.747Z,51.20
2019-02-28T22:20:21.646Z,51.10
2019-02-28T22:22:50.333Z,51.10
2019-02-28T22:25:19.120Z,51.10
2019-02-28T22:27:47.804Z,51.00
2019-02-28T22:30:38.079Z,51.00
2019-02-28T22:33:14.159Z,50.90
2019-02-28T22:35:44.463Z,51.60
2019-02-28T22:38:13.045Z,51.10
2019-02-28T22:40:41.631Z,51.10
2019-02-28T22:43:10.309Z,51.10
2019-02-28T22:45:38.892Z,51.00
2019-02-28T22:48:07.474Z,50.90
2019-02-28T22:50:36.062Z,50.90
2019-02-28T22:53:04.741Z,50.90
2019-02-28T22:55:33.324Z,50.80
2019-02-28T22:58:05.072Z,50.80
2019-02-28T23:01:04.393Z,50.70
2019-02-28T23:03:34.395Z,50.70
2019-02-28T23:06:02.963Z,50.70
2019-02-28T23:08:31.562Z,50.80
2019-02-28T23:11:00.143Z,50.80
2019-02-28T23:13:28.725Z,50.80
2019-02-28T23:15:57.411Z,50.80
2019-02-28T23:18:26.097Z,50.70
2019-02-28T23:20:54.780Z,50.70
2019-02-28T23:23:23.505Z,50.70
2019-02-28T23:25:52.253Z,50.70
2019-02-28T23:28:35.481Z,50.50
2019-02-28T23:31:10.210Z,50.60
2019-02-28T23:33:38.900Z,50.60
2019-02-28T23:36:07.577Z,50.50
2019-02-28T23:38:36.475Z,50.50
2019-02-28T23:41:05.665Z,50.50
2019-02-28T23:43:34.348Z,50.50
2019-02-28T23:46:03.034Z,50.50
2019-02-28T23:48:31.712Z,50.40
2019-02-28T23:51:00.488Z,50.40
2019-02-28T23:53:29.092Z,50.40
2019-02-28T23:55:57.767Z,50.40
2019-02-28T23:58:26.457Z,50.40
